Terminal Aerodrome Forecast
Issued by NWS Wichita, KS

Home | Current Version | Previous Version | Text Only | Print | Product List | Glossary On
Versions: 1 2 3 4 5 6 7 8 9 10 11 12 13 14 15 16 17 18 19 20 21
000
FTUS43 KICT 161120
TAFICT
TAF
KICT 161120Z 1612/1712 11005KT P6SM SKC
     FM161500 14009KT P6SM SKC
     FM161800 16015KT P6SM SKC
     FM162000 16015KT P6SM SCT035
     FM170300 15014KT P6SM SCT008 OVC015
     FM170500 16014KT 5SM BR SCT004 OVC008=

USA.gov is the U.S. government's official web portal to all federal, state and local government web resources and services.